Strona główna
METAR-TAF:

METAR-TAF

Lotnisko :

Port lotniczy Krajowa

Krajowa, Rumunia

Szerokość geograficzna: 44-14N, Długość geograficzna: 023-52E, wysokość: 192 m

Aktualna obserwacja pogody

Raport powstał 21 minut temu, godzina 21:30 UTC
Wiatr 4 kt od zachód
Temperatura -4°C
Wilgotność 86%
Ciśnienie 1032 hPa
Widzialność: 8000 m

METAR: LRCV 232130Z 26004KT 8000 NSC M04/M06 Q1032

czas: 23:51 (21:51 UTC)

Prognoza

Raport powstał 1 godzina i 51 minut temu, godzina 20:00 UTC
Prognoza ważna od 23 godzina 21 UTC do 24 godzina 06 UTC
Wiatr 6 kt od zachód
Widzialność 10 km lub więcej
Brak chmur poniżej 1500 m i brak chmur cumulonimbus
Prawdopodobieństwo 30% :
Przejściowo
od 24 godzina 00 UTC do 24 godzina 06 UTC
Widzialność: 3000 m
zamglenie

TAF: LRCV 232000Z 2321/2406 26006KT CAVOK PROB30 TEMPO 2400/2406 3000 BR

Obserwacja i prognoza pogody dla ponad 4000 lotnisk (raport METAR i TAF).

Dostępne stacje oznaczono żółtymi i czerwonymi punktami na mapie.

Najedź kursorem aby zobaczyć nazwę stacji.

Kliknij aby zobaczyć obserwacje i prognozy pogody.

Aby zmienić mapę: kliknij na zielony przycisk z czarnym krzyżykiem, aby powiększyć; na zielony przycisk z myślnikiem, aby pomniejszyć; na zielone strzałki, aby przejść do map sąsiednich.


METAR-TAF: